Time;durP1;ratioP1;P1;durP2;ratioP2;P2;SDS_P1;SDS_P2;PMS_P1;PMS_P2;Temp;Humidity;BMP_temperature;BMP_pressure;BME280_temperature;BME280_humidity;BME280_pressure;Samples;Min_cycle;Max_cycle;Signal;HPM_P1;HPM_P2
2022/08/20 00:00:22;;;;;;;3.53;2.78;;;;;;;22.00;65.25;101476.53;5045634;28;20045;-60
2022/08/20 00:02:52;;;;;;;5.88;2.47;;;;;;;22.00;65.27;101473.78;5031482;28;20045;-61
2022/08/20 00:05:23;;;;;;;4.13;2.72;;;;;;;21.98;65.35;101468.59;5025695;28;20082;-60
2022/08/20 00:07:51;;;;;;;3.25;2.80;;;;;;;21.97;65.33;101466.16;5025684;28;20064;-60
2022/08/20 00:10:20;;;;;;;5.53;2.85;;;;;;;21.97;65.28;101460.69;5026052;28;20056;-60
2022/08/20 00:12:50;;;;;;;5.65;2.92;;;;;;;21.96;65.28;101461.78;5025994;28;20093;-60
2022/08/20 00:15:21;;;;;;;5.70;3.38;;;;;;;21.95;65.46;101446.47;5038390;28;20103;-60
2022/08/20 00:17:49;;;;;;;5.50;2.75;;;;;;;21.94;65.21;101453.03;5045349;28;20049;-61
2022/08/20 00:20:20;;;;;;;4.38;3.10;;;;;;;21.93;65.46;101451.41;5034633;28;20144;-61
2022/08/20 00:22:47;;;;;;;5.00;3.00;;;;;;;21.92;65.45;101452.50;5025819;28;20480;-61
2022/08/20 00:25:17;;;;;;;8.00;2.88;;;;;;;21.91;65.46;101451.69;5025835;28;20050;-60
2022/08/20 00:27:45;;;;;;;4.97;2.90;;;;;;;21.91;65.53;101456.34;5026082;28;20081;-61
2022/08/20 00:30:15;;;;;;;6.90;3.33;;;;;;;21.89;65.45;101448.41;5025714;28;20088;-60
2022/08/20 00:32:44;;;;;;;6.00;3.20;;;;;;;21.89;65.30;101462.09;5025998;28;20145;-60
2022/08/20 00:35:14;;;;;;;4.05;3.20;;;;;;;21.88;65.47;101457.72;5025488;28;20054;-61
2022/08/20 00:37:41;;;;;;;5.43;3.65;;;;;;;21.85;65.48;101452.00;5025737;28;20069;-60
2022/08/20 00:40:11;;;;;;;3.75;3.03;;;;;;;21.87;65.37;101460.72;5025570;28;20084;-60
2022/08/20 00:42:52;;;;;;;6.30;2.53;;;;;;;21.85;65.40;101452.00;5025986;28;20085;-60
2022/08/20 00:45:21;;;;;;;4.45;3.20;;;;;;;21.84;65.48;101453.91;5028607;28;20057;-60
2022/08/20 00:47:49;;;;;;;5.60;3.00;;;;;;;21.84;65.43;101453.91;5029202;28;20045;-61
2022/08/20 00:50:23;;;;;;;3.83;2.80;;;;;;;21.83;65.33;101454.19;5029032;28;20076;-60
2022/08/20 00:52:52;;;;;;;4.03;2.90;;;;;;;21.83;65.48;101454.19;5029441;28;20049;-61
2022/08/20 00:55:23;;;;;;;6.22;3.08;;;;;;;21.82;65.33;101458.03;5029384;28;20046;-60
2022/08/20 00:58:01;;;;;;;4.93;2.92;;;;;;;21.80;65.42;101462.97;5029284;28;20050;-60
2022/08/20 01:00:34;;;;;;;5.57;2.97;;;;;;;21.81;65.41;101462.69;5028795;28;20073;-61
2022/08/20 01:03:02;;;;;;;5.45;3.20;;;;;;;21.80;65.69;101461.03;5029606;28;20046;-61
2022/08/20 01:05:30;;;;;;;4.45;3.00;;;;;;;21.80;65.45;101461.03;5028578;28;20057;-60
2022/08/20 01:07:58;;;;;;;4.50;2.60;;;;;;;21.79;65.64;101462.16;5028886;28;20083;-61
2022/08/20 01:10:29;;;;;;;5.90;3.40;;;;;;;21.78;65.56;101463.25;5028881;28;20061;-61
2022/08/20 01:12:58;;;;;;;4.80;2.65;;;;;;;21.78;65.53;101452.31;5029212;28;20065;-61
2022/08/20 01:15:28;;;;;;;5.18;3.10;;;;;;;21.76;65.57;101458.06;5028914;28;20060;-60
2022/08/20 01:18:02;;;;;;;5.45;3.20;;;;;;;21.76;65.72;101455.31;5028772;28;20145;-60
2022/08/20 01:20:33;;;;;;;4.35;2.88;;;;;;;21.76;65.70;101452.59;5028123;28;20504;-60
2022/08/20 01:23:29;;;;;;;6.22;3.33;;;;;;;21.74;65.75;101449.31;5028844;28;20432;-60
2022/08/20 01:26:04;;;;;;;5.60;3.72;;;;;;;21.76;65.56;101455.31;5028436;28;20492;-60
2022/08/20 01:28:40;;;;;;;4.18;2.85;;;;;;;21.75;65.55;101456.41;5028774;28;20081;-61
2022/08/20 01:31:10;;;;;;;3.60;3.08;;;;;;;21.75;65.40;101458.34;5028344;28;20046;-60
2022/08/20 01:33:39;;;;;;;5.22;3.13;;;;;;;21.71;65.45;101452.59;5028679;28;20050;-61
2022/08/20 01:36:10;;;;;;;5.00;2.72;;;;;;;21.74;65.63;101454.78;5028139;28;20042;-60
2022/08/20 01:38:40;;;;;;;4.82;3.05;;;;;;;21.73;65.67;101449.59;5028711;28;20085;-60
2022/08/20 01:41:33;;;;;;;4.78;2.95;;;;;;;21.73;65.81;101450.41;5028257;28;20076;-60
2022/08/20 01:44:01;;;;;;;4.35;2.90;;;;;;;21.72;65.64;101451.50;5028448;28;20053;-60
2022/08/20 01:46:34;;;;;;;3.97;2.80;;;;;;;21.72;65.49;101456.16;5028248;28;20388;-60
2022/08/20 01:49:14;;;;;;;3.15;2.60;;;;;;;21.71;65.88;101451.78;5028153;28;20052;-61
2022/08/20 01:51:50;;;;;;;4.65;2.75;;;;;;;21.70;65.72;101453.72;5027953;28;20046;-60
2022/08/20 01:54:18;;;;;;;5.53;3.40;;;;;;;21.70;65.57;101459.19;5028112;28;20077;-60
2022/08/20 01:56:57;;;;;;;6.75;3.55;;;;;;;21.68;65.86;101458.66;5028071;28;20057;-60
2022/08/20 01:59:25;;;;;;;6.43;3.67;;;;;;;21.68;65.91;101455.09;5028219;28;20053;-61
2022/08/20 02:01:53;;;;;;;5.53;3.47;;;;;;;21.67;65.79;101447.97;5028069;28;20054;-61
2022/08/20 02:04:21;;;;;;;4.80;4.07;;;;;;;21.66;65.85;101458.09;5028086;28;20058;-60
2022/08/20 02:06:53;;;;;;;7.28;3.67;;;;;;;21.62;65.89;101450.75;5027661;28;20061;-61
2022/08/20 02:09:25;;;;;;;5.78;3.60;;;;;;;21.64;66.03;101459.47;5028177;28;20046;-61
2022/08/20 02:11:56;;;;;;;7.35;4.05;;;;;;;21.63;65.96;101458.66;5027810;28;20076;-60
2022/08/20 02:14:24;;;;;;;8.70;3.28;;;;;;;21.62;66.02;101461.69;5027695;28;20046;-60
2022/08/20 02:16:52;;;;;;;10.38;3.80;;;;;;;21.60;66.17;101459.22;5027672;28;20125;-61
2022/08/20 02:19:25;;;;;;;7.88;4.38;;;;;;;21.57;66.00;101453.50;5027354;28;20046;-60
2022/08/20 02:21:56;;;;;;;6.93;4.03;;;;;;;21.59;66.17;101460.31;5027463;28;20065;-60
2022/08/20 02:24:24;;;;;;;7.72;4.38;;;;;;;21.58;66.12;101463.34;5027630;28;20088;-60
2022/08/20 02:26:54;;;;;;;8.20;4.40;;;;;;;21.57;66.19;101465.25;5027763;28;20486;-61
2022/08/20 02:29:24;;;;;;;10.48;5.85;;;;;;;21.56;66.37;101458.16;5027619;28;20077;-60
2022/08/20 02:31:53;;;;;;;8.10;4.68;;;;;;;21.55;66.30;101450.22;5027120;28;20054;-60
2022/08/20 02:34:41;;;;;;;6.07;4.40;;;;;;;21.49;66.43;101449.44;5037369;28;20054;-60
2022/08/20 02:37:09;;;;;;;7.68;4.63;;;;;;;21.53;66.19;101461.44;5046992;28;20053;-60
2022/08/20 02:39:37;;;;;;;8.55;5.30;;;;;;;21.53;66.11;101468.84;5046934;28;20045;-60
2022/08/20 02:42:06;;;;;;;8.70;5.50;;;;;;;21.52;66.35;101469.94;5030778;28;20053;-61
2022/08/20 02:44:35;;;;;;;7.38;4.93;;;;;;;21.51;66.23;101471.03;5027282;28;20173;-61
2022/08/20 02:47:04;;;;;;;8.80;5.30;;;;;;;21.50;66.24;101466.66;5026968;28;20080;-61
2022/08/20 02:49:33;;;;;;;11.45;5.22;;;;;;;21.50;66.16;101480.34;5038756;28;20076;-61
2022/08/20 02:52:01;;;;;;;12.07;5.80;;;;;;;21.48;66.06;101474.31;5046665;28;20463;-60
2022/08/20 02:54:29;;;;;;;8.57;5.20;;;;;;;21.47;66.12;101473.50;5045277;28;20088;-61
2022/08/20 02:56:56;;;;;;;8.07;5.57;;;;;;;21.46;66.13;101474.59;5027082;28;20110;-61
2022/08/20 02:59:25;;;;;;;8.77;5.50;;;;;;;21.45;66.26;101472.97;5029668;28;20041;-61
2022/08/20 03:01:53;;;;;;;9.43;5.75;;;;;;;21.45;66.28;101467.50;5046468;28;20053;-60
2022/08/20 03:04:27;;;;;;;9.93;5.55;;;;;;;21.44;66.20;101471.34;5046484;28;20053;-61
2022/08/20 03:06:55;;;;;;;6.72;5.00;;;;;;;21.43;66.28;101477.91;5045585;28;20054;-60
2022/08/20 03:09:22;;;;;;;9.25;5.45;;;;;;;21.43;66.13;101480.63;5045380;28;20049;-60
2022/08/20 03:11:51;;;;;;;9.55;7.00;;;;;;;21.40;66.12;101481.19;5045554;28;20064;-61
2022/08/20 03:14:18;;;;;;;7.13;5.43;;;;;;;21.38;66.39;101484.19;5026768;28;20388;-61
2022/08/20 03:16:47;;;;;;;10.00;6.85;;;;;;;21.38;66.36;101481.47;5029902;28;20041;-60
2022/08/20 03:19:15;;;;;;;11.52;7.55;;;;;;;21.39;66.24;101485.03;5046155;28;20053;-60
2022/08/20 03:21:43;;;;;;;13.43;7.22;;;;;;;21.37;66.25;101482.56;5046279;28;20491;-61
2022/08/20 03:24:11;;;;;;;11.38;8.23;;;;;;;21.37;66.19;101482.56;5043481;28;20052;-60
2022/08/20 03:26:39;;;;;;;11.65;7.78;;;;;;;21.36;66.19;101489.13;5026987;28;20050;-60
2022/08/20 03:29:07;;;;;;;13.13;7.70;;;;;;;21.36;66.15;101480.94;5032182;28;20080;-61
2022/08/20 03:31:35;;;;;;;13.30;8.18;;;;;;;21.37;66.16;101492.69;5046344;28;20510;-60
2022/08/20 03:34:04;;;;;;;12.98;8.82;;;;;;;21.35;66.24;101483.94;5046564;28;20061;-60
2022/08/20 03:36:32;;;;;;;16.13;8.65;;;;;;;21.35;65.97;101484.75;5032160;28;20076;-60
2022/08/20 03:39:03;;;;;;;15.43;7.75;;;;;;;21.35;65.99;101487.50;5026358;28;20085;-61
2022/08/20 03:41:31;;;;;;;12.55;7.50;;;;;;;21.36;65.84;101493.78;5026005;28;20534;-61
2022/08/20 03:43:59;;;;;;;10.25;7.05;;;;;;;21.35;65.89;101497.63;5026383;28;20054;-60
2022/08/20 03:46:26;;;;;;;11.32;7.80;;;;;;;21.35;65.85;101495.69;5025595;28;20061;-61
2022/08/20 03:48:55;;;;;;;11.75;6.43;;;;;;;21.31;65.82;101502.81;5045419;28;20049;-60
2022/08/20 03:51:29;;;;;;;12.52;8.18;;;;;;;21.34;65.89;101504.19;5045455;28;20395;-60
2022/08/20 03:53:57;;;;;;;13.07;6.82;;;;;;;21.31;65.60;101499.25;5044976;28;20061;-61
2022/08/20 03:56:25;;;;;;;13.13;6.57;;;;;;;21.29;65.67;101494.06;5045848;28;20045;-61
2022/08/20 03:58:54;;;;;;;11.57;6.25;;;;;;;21.31;65.49;101500.09;5045841;28;20050;-60
2022/08/20 04:01:22;;;;;;;9.88;5.55;;;;;;;21.30;65.54;101500.34;5030030;28;20078;-60
2022/08/20 04:04:10;;;;;;;9.73;5.85;;;;;;;21.29;65.63;101502.28;5026135;28;20054;-60
2022/08/20 04:06:41;;;;;;;9.07;5.60;;;;;;;21.27;65.66;101509.94;5025503;28;20077;-60
2022/08/20 04:09:09;;;;;;;10.30;5.88;;;;;;;21.26;65.55;101508.31;5026062;28;20050;-60
2022/08/20 04:11:39;;;;;;;10.68;6.78;;;;;;;21.25;65.47;101517.59;5025843;28;20060;-60
2022/08/20 04:14:06;;;;;;;11.75;6.28;;;;;;;21.25;65.57;101511.31;5026128;28;20089;-60
2022/08/20 04:16:36;;;;;;;12.13;6.18;;;;;;;21.23;65.47;101505.31;5025452;28;20054;-60
2022/08/20 04:19:05;;;;;;;12.75;6.40;;;;;;;21.21;65.43;101513.75;5029011;28;20115;-60
2022/08/20 04:21:34;;;;;;;14.50;6.03;;;;;;;21.20;65.33;101517.56;5029488;28;20057;-60
2022/08/20 04:24:05;;;;;;;13.77;6.68;;;;;;;21.20;65.32;101519.50;5029867;28;20054;-60
2022/08/20 04:26:35;;;;;;;12.98;6.20;;;;;;;21.19;65.46;101515.94;5029952;28;20423;-60
2022/08/20 04:29:03;;;;;;;11.38;5.97;;;;;;;21.17;65.19;101518.13;5029767;28;20042;-60
2022/08/20 04:31:32;;;;;;;10.13;6.72;;;;;;;21.18;65.21;101510.75;5029524;28;20045;-60
2022/08/20 04:34:01;;;;;;;9.90;5.82;;;;;;;21.16;65.27;101516.50;5047754;28;20076;-60
2022/08/20 04:36:29;;;;;;;10.00;5.95;;;;;;;21.15;65.22;101516.75;5049111;28;20081;-60
2022/08/20 04:38:57;;;;;;;13.15;6.75;;;;;;;21.14;65.13;101521.41;5048112;28;20101;-60
2022/08/20 04:41:25;;;;;;;12.10;6.10;;;;;;;21.13;65.22;101528.78;5048935;28;20499;-60
2022/08/20 04:43:55;;;;;;;14.85;6.70;;;;;;;21.11;65.22;101528.25;5040168;28;20086;-60
2022/08/20 04:46:24;;;;;;;14.43;6.93;;;;;;;21.11;65.17;101539.19;5028649;28;20080;-60
2022/08/20 04:48:53;;;;;;;10.50;5.97;;;;;;;21.07;64.96;101532.63;5028962;28;20050;-60
2022/08/20 04:51:21;;;;;;;11.50;6.60;;;;;;;21.09;64.95;101538.63;5048423;28;20050;-60
2022/08/20 04:53:51;;;;;;;7.88;5.72;;;;;;;21.09;65.07;101546.84;5049060;28;20061;-60
2022/08/20 04:56:22;;;;;;;11.90;6.68;;;;;;;21.05;65.23;101545.75;5049181;28;20108;-60
2022/08/20 04:58:53;;;;;;;10.50;6.20;;;;;;;21.08;64.90;101555.31;5048040;28;20045;-60
2022/08/20 05:01:22;;;;;;;12.23;5.95;;;;;;;21.06;65.00;101552.03;5048889;28;20052;-59
2022/08/20 05:03:53;;;;;;;11.43;6.22;;;;;;;21.05;64.89;101559.41;5048433;28;20052;-60
2022/08/20 05:06:23;;;;;;;11.80;6.60;;;;;;;21.05;65.00;101558.59;5034091;28;20056;-60
2022/08/20 05:08:52;;;;;;;10.80;6.95;;;;;;;21.03;65.01;101558.88;5028496;28;20064;-60
2022/08/20 05:11:21;;;;;;;13.85;6.97;;;;;;;21.03;64.88;101558.06;5028128;28;20550;-61
2022/08/20 05:14:05;;;;;;;12.90;7.13;;;;;;;21.02;64.85;101565.44;5027970;28;20104;-60
2022/08/20 05:16:37;;;;;;;13.50;8.18;;;;;;;21.01;64.84;101569.25;5044008;28;20057;-61
2022/08/20 05:19:07;;;;;;;10.95;7.43;;;;;;;20.97;65.00;101562.69;5040051;28;20046;-60
2022/08/20 05:21:35;;;;;;;17.13;8.27;;;;;;;21.00;65.00;101566.81;5027809;28;20077;-60
2022/08/20 05:24:04;;;;;;;9.43;7.15;;;;;;;20.99;64.94;101570.63;5028705;28;20057;-60
2022/08/20 05:26:33;;;;;;;18.42;7.60;;;;;;;20.98;64.93;101566.25;5028873;28;20054;-60
2022/08/20 05:29:01;;;;;;;15.68;7.82;;;;;;;20.98;64.85;101564.34;5028420;28;20088;-60
2022/08/20 05:31:31;;;;;;;13.95;7.55;;;;;;;20.98;64.83;101569.81;5038899;28;20080;-60
2022/08/20 05:34:01;;;;;;;15.23;8.07;;;;;;;20.98;64.77;101563.53;5048400;28;20415;-59
2022/08/20 05:36:29;;;;;;;14.40;8.10;;;;;;;20.97;64.64;101562.69;5047828;28;20049;-60
2022/08/20 05:38:57;;;;;;;15.40;8.63;;;;;;;20.97;64.75;101564.63;5048318;28;20057;-60
2022/08/20 05:41:24;;;;;;;12.55;7.80;;;;;;;20.96;64.77;101568.44;5030777;28;20073;-60
2022/08/20 05:43:56;;;;;;;16.58;8.50;;;;;;;20.94;64.71;101574.19;5028371;28;20049;-60
2022/08/20 05:46:24;;;;;;;15.07;9.02;;;;;;;20.94;64.79;101576.09;5027801;28;20087;-62
2022/08/20 05:48:53;;;;;;;14.80;8.68;;;;;;;20.94;64.72;101574.19;5046056;28;20053;-60
2022/08/20 05:51:21;;;;;;;14.77;8.65;;;;;;;20.93;64.68;101572.53;5047509;28;20056;-59
2022/08/20 05:53:49;;;;;;;15.85;9.02;;;;;;;20.93;64.71;101578.00;5037488;28;20061;-62
2022/08/20 05:56:16;;;;;;;15.68;8.23;;;;;;;20.92;64.75;101576.38;5028018;28;20081;-60
2022/08/20 05:58:44;;;;;;;14.52;8.90;;;;;;;20.93;64.63;101579.91;5028086;28;20073;-60
2022/08/20 06:01:12;;;;;;;17.42;9.70;;;;;;;20.92;64.61;101581.00;5043026;28;20073;-60
2022/08/20 06:06:27;;;;;;;15.63;8.80;;;;;;;20.91;64.67;101588.38;5027335;28;20057;-60
2022/08/20 06:09:14;;;;;;;17.35;9.45;;;;;;;20.91;64.58;101595.75;5028091;28;20053;-61
2022/08/20 06:11:41;;;;;;;17.77;9.98;;;;;;;20.91;64.56;101598.50;5027529;28;20061;-60
2022/08/20 06:14:09;;;;;;;18.70;10.32;;;;;;;20.89;64.67;101587.03;5028241;28;20053;-60
2022/08/20 06:16:37;;;;;;;17.92;9.93;;;;;;;20.88;64.67;101588.13;5027480;28;20064;-60
2022/08/20 06:19:05;;;;;;;21.98;9.95;;;;;;;20.87;64.83;101589.22;5027922;28;20468;-60
2022/08/20 06:21:39;;;;;;;16.85;10.23;;;;;;;20.87;64.77;101600.13;5026857;28;20050;-60
2022/08/20 06:24:08;;;;;;;23.55;11.32;;;;;;;20.86;64.78;101591.13;5027925;28;20046;-61
2022/08/20 06:26:36;;;;;;;18.77;10.57;;;;;;;20.78;64.71;101584.31;5027208;28;20070;-60
2022/08/20 06:29:05;;;;;;;15.38;10.02;;;;;;;20.85;64.76;101589.47;5027479;28;20077;-61
2022/08/20 06:31:38;;;;;;;19.83;11.05;;;;;;;20.84;64.72;101587.84;5027236;28;20054;-60
2022/08/20 06:34:07;;;;;;;16.95;11.05;;;;;;;20.85;64.66;101583.19;5027840;28;20077;-60
2022/08/20 06:36:34;;;;;;;20.25;11.15;;;;;;;20.83;64.79;101580.72;5026697;28;20515;-61
2022/08/20 06:39:04;;;;;;;18.17;11.38;;;;;;;20.84;64.69;101589.75;5027640;28;20053;-60
2022/08/20 06:41:32;;;;;;;20.52;10.75;;;;;;;20.83;64.69;101586.19;5026020;28;20153;-60
2022/08/20 06:44:05;;;;;;;19.63;10.02;;;;;;;20.83;64.56;101599.84;5036383;28;20072;-60
2022/08/20 06:46:33;;;;;;;19.80;10.27;;;;;;;20.83;64.74;101588.09;5046401;28;20454;-61
2022/08/20 06:49:02;;;;;;;19.90;11.35;;;;;;;20.82;64.61;101598.22;5047106;28;20056;-60
2022/08/20 06:51:30;;;;;;;22.00;11.60;;;;;;;20.82;64.69;101597.41;5029874;28;20542;-60
2022/08/20 06:53:58;;;;;;;20.85;11.18;;;;;;;20.81;64.61;101593.84;5027151;28;20049;-60
2022/08/20 06:56:27;;;;;;;16.65;10.52;;;;;;;20.82;64.81;101587.28;5027090;28;20050;-60
2022/08/20 06:58:55;;;;;;;18.75;11.23;;;;;;;20.81;64.79;101596.59;5026902;28;20053;-60
2022/08/20 07:01:23;;;;;;;23.05;12.18;;;;;;;20.81;64.87;101593.84;5026769;28;20084;-60
2022/08/20 07:03:50;;;;;;;19.50;11.75;;;;;;;20.79;64.75;101596.88;5026865;28;20105;-60
2022/08/20 07:06:24;;;;;;;23.50;12.23;;;;;;;20.80;64.88;101603.97;5026231;28;20053;-60
2022/08/20 07:08:52;;;;;;;19.17;11.32;;;;;;;20.77;64.79;101595.50;5027090;28;20054;-60
2022/08/20 07:11:20;;;;;;;17.95;11.55;;;;;;;20.80;64.77;101603.97;5026460;28;20053;-60
2022/08/20 07:13:56;;;;;;;20.77;11.98;;;;;;;20.79;64.71;101607.00;5026793;28;20081;-60
2022/08/20 07:16:25;;;;;;;22.83;11.70;;;;;;;20.79;64.67;101607.00;5026403;28;20085;-60
2022/08/20 07:18:53;;;;;;;24.05;11.75;;;;;;;20.79;64.63;101607.00;5038326;28;20085;-60
2022/08/20 07:21:20;;;;;;;21.88;11.60;;;;;;;20.79;64.73;101610.53;5045829;28;20518;-60
2022/08/20 07:23:48;;;;;;;17.95;11.98;;;;;;;20.79;64.64;101610.53;5045323;28;20057;-61
2022/08/20 07:26:16;;;;;;;22.73;13.13;;;;;;;20.80;64.80;101617.63;5046308;28;20141;-60
2022/08/20 07:28:45;;;;;;;18.23;12.38;;;;;;;20.80;64.78;101617.63;5045188;28;20049;-61
2022/08/20 07:34:01;;;;;;;24.58;12.85;;;;;;;20.80;64.69;101628.53;5046283;28;20104;-60
2022/08/20 07:36:29;;;;;;;22.02;13.40;;;;;;;20.80;64.86;101619.56;5044813;28;20065;-61
2022/08/20 07:38:57;;;;;;;23.02;12.23;;;;;;;20.80;64.66;101631.28;5046154;28;20053;-60
2022/08/20 07:41:25;;;;;;;24.17;12.88;;;;;;;20.80;64.72;101631.28;5045604;28;20045;-60
2022/08/20 07:43:53;;;;;;;17.23;12.27;;;;;;;20.80;64.75;101631.28;5046073;28;20045;-60
2022/08/20 07:46:22;;;;;;;23.98;13.85;;;;;;;20.80;64.94;101634.00;5032499;28;20057;-60
2022/08/20 07:48:57;;;;;;;21.42;13.02;;;;;;;20.80;64.80;101634.00;5026222;28;20054;-60
2022/08/20 07:51:25;;;;;;;19.05;12.32;;;;;;;20.79;64.93;101637.88;5025447;28;20065;-60
2022/08/20 07:53:53;;;;;;;26.73;14.75;;;;;;;20.80;64.75;101641.41;5025865;28;20077;-60
2022/08/20 07:56:23;;;;;;;21.60;12.45;;;;;;;20.80;64.87;101641.41;5026135;28;20080;-60
2022/08/20 07:58:54;;;;;;;23.80;13.85;;;;;;;20.80;64.99;101649.63;5026318;28;20049;-60
2022/08/20 08:01:28;;;;;;;20.80;12.77;;;;;;;20.80;64.98;101655.06;5043651;28;20049;-60
2022/08/20 08:03:56;;;;;;;21.23;13.52;;;;;;;20.79;65.07;101651.53;5045919;28;20053;-60
2022/08/20 08:06:26;;;;;;;21.23;12.70;;;;;;;20.81;65.08;101656.69;5045132;28;20142;-60
2022/08/20 08:09:02;;;;;;;21.50;12.43;;;;;;;20.79;64.95;101651.53;5042227;28;20392;-61
2022/08/20 08:11:32;;;;;;;21.60;13.45;;;;;;;20.81;64.99;101656.69;5025625;28;20397;-60
2022/08/20 08:14:00;;;;;;;20.15;12.98;;;;;;;20.81;65.05;101648.50;5026096;28;20439;-60
2022/08/20 08:16:31;;;;;;;23.42;13.50;;;;;;;20.82;64.94;101649.31;5025924;28;20408;-60
2022/08/20 08:19:00;;;;;;;22.25;13.02;;;;;;;20.83;65.16;101653.69;5026186;28;20081;-60
2022/08/20 08:21:28;;;;;;;24.70;13.95;;;;;;;20.82;65.09;101660.25;5025218;28;20046;-60
2022/08/20 08:23:57;;;;;;;24.63;13.57;;;;;;;20.81;65.18;101656.69;5025996;28;20050;-61
2022/08/20 08:26:27;;;;;;;23.95;13.60;;;;;;;20.81;65.25;101664.88;5026192;28;20054;-60
2022/08/20 08:28:55;;;;;;;22.05;12.75;;;;;;;20.81;65.29;101659.41;5026012;28;20053;-60
2022/08/20 08:31:24;;;;;;;23.98;13.68;;;;;;;20.83;65.47;101659.16;5025596;28;20069;-60
2022/08/20 08:33:53;;;;;;;24.63;13.63;;;;;;;20.83;65.50;101664.63;5025600;28;20050;-60
2022/08/20 08:36:21;;;;;;;26.17;14.45;;;;;;;20.83;65.28;101668.16;5025414;28;20050;-60
2022/08/20 08:38:49;;;;;;;24.23;15.20;;;;;;;20.83;65.38;101667.34;5026060;28;20057;-60
2022/08/20 08:41:19;;;;;;;25.83;14.43;;;;;;;20.83;65.39;101670.06;5025466;28;20065;-60
2022/08/20 08:43:49;;;;;;;20.05;13.57;;;;;;;20.80;65.55;101668.75;5025897;28;20084;-60
2022/08/20 08:46:21;;;;;;;18.95;13.07;;;;;;;20.83;65.55;101668.16;5025532;28;20054;-60
2022/08/20 08:48:52;;;;;;;22.50;13.23;;;;;;;20.82;65.34;101672.00;5025728;28;20054;-60
2022/08/20 08:51:29;;;;;;;21.23;12.77;;;;;;;20.85;65.50;101676.09;5024968;28;20046;-60
2022/08/20 08:53:58;;;;;;;21.38;13.45;;;;;;;20.85;65.40;101676.91;5025597;28;20073;-60
2022/08/20 08:56:34;;;;;;;21.00;13.63;;;;;;;20.88;65.26;101678.28;5025563;28;20508;-60
2022/08/20 08:59:06;;;;;;;20.08;12.13;;;;;;;20.87;65.39;101677.47;5025460;28;20084;-60
2022/08/20 09:01:41;;;;;;;18.00;11.35;;;;;;;20.90;65.38;101681.56;5025497;28;20042;-60
2022/08/20 09:04:29;;;;;;;17.63;11.85;;;;;;;20.91;65.36;101678.56;5025519;28;20053;-60
2022/08/20 09:06:59;;;;;;;22.13;11.93;;;;;;;20.93;65.35;101678.28;5042194;28;20103;-60
2022/08/20 09:09:31;;;;;;;26.15;12.23;;;;;;;20.93;65.23;101678.28;5048899;28;20052;-61
2022/08/20 09:12:04;;;;;;;16.92;11.25;;;;;;;20.96;65.08;101683.22;5045576;28;20049;-60
2022/08/20 09:14:32;;;;;;;20.13;10.73;;;;;;;20.97;65.18;101679.41;5029004;28;20085;-60
2022/08/20 09:16:59;;;;;;;17.23;10.70;;;;;;;20.98;65.02;101681.03;5028452;28;20073;-61
2022/08/20 09:19:27;;;;;;;14.77;9.98;;;;;;;21.00;64.84;101676.13;5029072;28;20092;-60
2022/08/20 09:21:55;;;;;;;17.83;10.50;;;;;;;21.02;64.83;101676.66;5028145;28;20049;-60
2022/08/20 09:24:24;;;;;;;16.10;9.60;;;;;;;21.03;64.73;101678.31;5028765;28;20049;-61
2022/08/20 09:26:52;;;;;;;18.27;10.48;;;;;;;21.05;64.60;101673.41;5036172;28;20053;-61
2022/08/20 09:29:20;;;;;;;18.00;9.77;;;;;;;21.03;64.31;101665.47;5048533;28;20084;-61
2022/08/20 09:31:47;;;;;;;13.95;8.57;;;;;;;21.06;64.44;101675.03;5047863;28;20103;-61
2022/08/20 09:34:15;;;;;;;14.30;8.80;;;;;;;21.07;64.26;101671.22;5041706;28;20050;-61
2022/08/20 09:36:43;;;;;;;13.25;8.30;;;;;;;21.08;64.26;101673.66;5028262;28;20053;-60
2022/08/20 09:39:11;;;;;;;14.27;8.07;;;;;;;21.09;64.13;101674.50;5028644;28;20085;-61
2022/08/20 09:41:40;;;;;;;15.77;8.52;;;;;;;21.10;64.01;101673.41;5027886;28;20495;-60
2022/08/20 09:44:08;;;;;;;12.07;7.53;;;;;;;21.11;63.71;101666.84;5047831;28;20084;-60
2022/08/20 09:46:36;;;;;;;16.10;8.18;;;;;;;21.12;63.53;101671.22;5047743;28;20064;-61
2022/08/20 09:49:03;;;;;;;11.10;7.35;;;;;;;21.12;63.58;101665.75;5048107;28;20053;-60
2022/08/20 09:51:33;;;;;;;12.00;7.90;;;;;;;21.13;63.40;101664.66;5046330;28;20050;-61
2022/08/20 09:54:05;;;;;;;15.10;7.72;;;;;;;21.13;63.54;101664.66;5048147;28;20056;-60
2022/08/20 09:56:34;;;;;;;13.55;7.82;;;;;;;21.17;63.21;101664.94;5047852;28;20061;-60
2022/08/20 09:59:03;;;;;;;10.48;7.47;;;;;;;21.19;63.23;101673.69;5036992;28;20056;-61
2022/08/20 10:01:31;;;;;;;12.68;7.35;;;;;;;21.20;63.14;101672.59;5027735;28;20057;-60
2022/08/20 10:03:59;;;;;;;15.40;7.78;;;;;;;21.20;62.26;101673.41;5045357;28;20053;-60
2022/08/20 10:06:27;;;;;;;10.02;6.40;;;;;;;21.22;62.32;101678.63;5047374;28;20081;-61
2022/08/20 10:08:55;;;;;;;10.20;5.75;;;;;;;21.22;61.92;101673.97;5047936;28;20049;-60
2022/08/20 10:11:22;;;;;;;10.98;6.05;;;;;;;21.23;61.38;101672.06;5044199;28;20053;-60
2022/08/20 10:13:51;;;;;;;12.02;5.78;;;;;;;21.24;61.05;101666.34;5027751;28;20073;-60
2022/08/20 10:16:20;;;;;;;8.93;5.40;;;;;;;21.25;60.53;101676.19;5027195;28;20073;-60
2022/08/20 10:18:48;;;;;;;11.13;5.25;;;;;;;21.25;60.27;101670.72;5027612;28;20050;-60
2022/08/20 10:21:16;;;;;;;8.85;5.05;;;;;;;21.27;60.49;101671.25;5027009;28;20046;-60
2022/08/20 10:23:44;;;;;;;6.82;3.97;;;;;;;21.29;60.30;101673.72;5027587;28;20081;-60
2022/08/20 10:26:13;;;;;;;10.10;4.57;;;;;;;21.31;60.20;101677.81;5027472;28;20050;-60
2022/08/20 10:28:41;;;;;;;10.95;5.15;;;;;;;21.34;60.00;101673.72;5027945;28;20056;-61
2022/08/20 10:31:10;;;;;;;10.93;4.20;;;;;;;21.35;59.85;101667.16;5027224;28;20057;-61
2022/08/20 10:33:40;;;;;;;12.02;4.55;;;;;;;21.37;59.73;101670.44;5027451;28;20065;-61
2022/08/20 10:36:10;;;;;;;9.73;3.92;;;;;;;21.39;59.82;101673.72;5027209;28;20056;-61
2022/08/20 10:38:37;;;;;;;10.02;4.07;;;;;;;21.41;59.78;101666.06;5027331;28;20057;-61
2022/08/20 10:41:05;;;;;;;11.48;5.20;;;;;;;21.43;59.27;101674.81;5027217;28;20073;-61
2022/08/20 10:43:34;;;;;;;7.65;4.20;;;;;;;21.44;59.25;101674.53;5027376;28;20050;-61
2022/08/20 10:46:02;;;;;;;6.35;3.88;;;;;;;21.47;58.84;101680.56;5027148;28;20073;-61
2022/08/20 10:48:29;;;;;;;9.55;4.60;;;;;;;21.49;58.60;101678.34;5027217;28;20096;-61
2022/08/20 10:50:59;;;;;;;12.02;4.53;;;;;;;21.50;58.12;101680.00;5026752;28;20053;-61
2022/08/20 10:53:26;;;;;;;7.95;3.40;;;;;;;21.51;57.76;101679.72;5027246;28;20084;-61
2022/08/20 10:55:55;;;;;;;7.88;3.00;;;;;;;21.55;57.60;101680.00;5026859;28;20081;-61
2022/08/20 10:58:22;;;;;;;10.07;3.72;;;;;;;21.56;56.98;101673.44;5027081;28;20142;-61
2022/08/20 11:00:50;;;;;;;7.05;3.58;;;;;;;21.58;57.67;101676.72;5026888;28;20057;-61
2022/08/20 11:03:19;;;;;;;11.52;4.25;;;;;;;21.62;57.51;101677.81;5041056;28;20049;-61
2022/08/20 11:05:47;;;;;;;6.22;2.95;;;;;;;21.66;57.23;101674.25;5046435;28;20049;-61
2022/08/20 11:08:16;;;;;;;9.70;3.60;;;;;;;21.71;57.20;101681.63;5029026;28;20058;-61
2022/08/20 11:11:00;;;;;;;6.88;3.10;;;;;;;21.75;56.97;101671.75;5026665;28;20065;-61
2022/08/20 11:13:28;;;;;;;10.27;4.28;;;;;;;21.77;56.42;101675.88;5026424;28;20446;-61
2022/08/20 11:15:55;;;;;;;7.53;3.75;;;;;;;21.80;56.59;101674.50;5030669;28;20053;-61
2022/08/20 11:18:23;;;;;;;13.38;3.75;;;;;;;21.84;57.44;101670.09;5046363;28;20092;-61
2022/08/20 11:20:51;;;;;;;8.13;3.45;;;;;;;21.87;56.85;101671.47;5045026;28;20088;-61
2022/08/20 11:23:20;;;;;;;8.68;3.40;;;;;;;21.89;57.18;101675.56;5046243;28;20045;-61
2022/08/20 11:25:49;;;;;;;9.05;3.28;;;;;;;21.92;56.57;101679.66;5046388;28;20049;-61
2022/08/20 11:28:16;;;;;;;7.72;3.42;;;;;;;21.94;55.97;101674.72;5034648;28;20060;-61
2022/08/20 11:30:59;;;;;;;9.02;3.80;;;;;;;21.95;55.44;101679.94;5026418;28;20055;-61
2022/08/20 11:33:26;;;;;;;8.05;3.97;;;;;;;21.95;54.82;101682.66;5026703;28;20054;-61